sensor_id;sensor_type;location;lat;lon;timestamp;temperature;humidity
25170;DHT22;13129;48.012;10.352;2024-01-06T04:32:02;3.70;99.90
25170;DHT22;13129;48.012;10.352;2024-01-06T04:34:28;3.70;99.90
25170;DHT22;13129;48.012;10.352;2024-01-06T04:36:54;3.70;99.90
25170;DHT22;13129;48.012;10.352;2024-01-06T04:39:19;3.70;99.90
25170;DHT22;13129;48.012;10.352;2024-01-06T04:41:45;3.70;99.90
25170;DHT22;13129;48.012;10.352;2024-01-06T04:44:10;3.70;99.90
25170;DHT22;13129;48.012;10.352;2024-01-06T04:46:36;3.70;99.90
25170;DHT22;13129;48.012;10.352;2024-01-06T04:49:02;3.70;99.90
25170;DHT22;13129;48.012;10.352;2024-01-06T04:51:28;3.70;99.90
25170;DHT22;13129;48.012;10.352;2024-01-06T04:53:53;3.60;99.90
25170;DHT22;13129;48.012;10.352;2024-01-06T04:56:19;3.60;99.90
25170;DHT22;13129;48.012;10.352;2024-01-06T04:58:45;3.50;99.90
25170;DHT22;13129;48.012;10.352;2024-01-06T05:01:10;3.40;99.90
25170;DHT22;13129;48.012;10.352;2024-01-06T05:03:36;3.50;99.90
25170;DHT22;13129;48.012;10.352;2024-01-06T05:06:01;3.50;99.90
25170;DHT22;13129;48.012;10.352;2024-01-06T05:08:27;3.50;99.90
25170;DHT22;13129;48.012;10.352;2024-01-06T05:10:55;3.40;99.90
25170;DHT22;13129;48.012;10.352;2024-01-06T05:13:21;3.50;99.90
25170;DHT22;13129;48.012;10.352;2024-01-06T05:15:46;3.60;99.90
25170;DHT22;13129;48.012;10.352;2024-01-06T05:18:12;3.40;99.90
25170;DHT22;13129;48.012;10.352;2024-01-06T05:20:38;3.40;99.90
25170;DHT22;13129;48.012;10.352;2024-01-06T05:23:03;3.30;99.90
25170;DHT22;13129;48.012;10.352;2024-01-06T05:25:29;3.40;99.90
25170;DHT22;13129;48.012;10.352;2024-01-06T05:27:54;3.40;99.90
25170;DHT22;13129;48.012;10.352;2024-01-06T05:30:20;3.50;99.90
25170;DHT22;13129;48.012;10.352;2024-01-06T05:32:46;3.50;99.90
25170;DHT22;13129;48.012;10.352;2024-01-06T05:35:11;3.50;99.90
25170;DHT22;13129;48.012;10.352;2024-01-06T05:37:37;3.50;99.90
25170;DHT22;13129;48.012;10.352;2024-01-06T05:40:03;3.60;99.90
25170;DHT22;13129;48.012;10.352;2024-01-06T05:42:30;3.60;99.90
25170;DHT22;13129;48.012;10.352;2024-01-06T05:44:55;3.70;99.90
25170;DHT22;13129;48.012;10.352;2024-01-06T05:47:21;3.60;99.90
25170;DHT22;13129;48.012;10.352;2024-01-06T05:49:47;3.60;99.90
25170;DHT22;13129;48.012;10.352;2024-01-06T05:52:12;3.60;99.90
25170;DHT22;13129;48.012;10.352;2024-01-06T05:54:41;3.60;99.90
25170;DHT22;13129;48.012;10.352;2024-01-06T05:57:10;3.50;99.90
25170;DHT22;13129;48.012;10.352;2024-01-06T05:59:37;3.60;99.90
25170;DHT22;13129;48.012;10.352;2024-01-06T06:02:02;3.50;99.90
25170;DHT22;13129;48.012;10.352;2024-01-06T06:04:29;3.50;99.90
25170;DHT22;13129;48.012;10.352;2024-01-06T06:06:54;3.50;99.90
25170;DHT22;13129;48.012;10.352;2024-01-06T06:09:20;3.50;99.90
25170;DHT22;13129;48.012;10.352;2024-01-06T06:11:47;3.50;99.90
25170;DHT22;13129;48.012;10.352;2024-01-06T06:14:12;3.60;99.90
25170;DHT22;13129;48.012;10.352;2024-01-06T06:16:38;3.60;99.90
25170;DHT22;13129;48.012;10.352;2024-01-06T06:19:04;3.50;99.90
25170;DHT22;13129;48.012;10.352;2024-01-06T06:21:30;3.60;99.90
25170;DHT22;13129;48.012;10.352;2024-01-06T06:23:55;3.40;99.90
25170;DHT22;13129;48.012;10.352;2024-01-06T06:26:21;3.40;99.90
25170;DHT22;13129;48.012;10.352;2024-01-06T06:28:47;3.40;99.90
25170;DHT22;13129;48.012;10.352;2024-01-06T06:31:12;3.40;99.90
25170;DHT22;13129;48.012;10.352;2024-01-06T06:33:38;3.30;99.90
25170;DHT22;13129;48.012;10.352;2024-01-06T06:36:05;3.30;99.90
25170;DHT22;13129;48.012;10.352;2024-01-06T06:38:30;3.30;99.90
25170;DHT22;13129;48.012;10.352;2024-01-06T06:40:56;3.20;99.90
25170;DHT22;13129;48.012;10.352;2024-01-06T06:43:21;3.10;99.90
25170;DHT22;13129;48.012;10.352;2024-01-06T06:45:47;3.00;99.90
25170;DHT22;13129;48.012;10.352;2024-01-06T06:48:13;3.00;99.90
25170;DHT22;13129;48.012;10.352;2024-01-06T06:50:38;3.00;99.90
25170;DHT22;13129;48.012;10.352;2024-01-06T06:53:06;2.90;99.90
25170;DHT22;13129;48.012;10.352;2024-01-06T06:55:31;2.90;99.90
25170;DHT22;13129;48.012;10.352;2024-01-06T06:57:57;2.80;99.90
25170;DHT22;13129;48.012;10.352;2024-01-06T07:00:23;2.70;99.90
25170;DHT22;13129;48.012;10.352;2024-01-06T07:02:48;2.70;99.90
25170;DHT22;13129;48.012;10.352;2024-01-06T07:05:14;2.80;99.90
25170;DHT22;13129;48.012;10.352;2024-01-06T07:07:40;2.70;99.90
25170;DHT22;13129;48.012;10.352;2024-01-06T07:10:06;2.80;99.90
25170;DHT22;13129;48.012;10.352;2024-01-06T07:12:32;2.70;99.90
25170;DHT22;13129;48.012;10.352;2024-01-06T07:14:58;2.70;99.90
25170;DHT22;13129;48.012;10.352;2024-01-06T07:17:24;2.70;99.90
25170;DHT22;13129;48.012;10.352;2024-01-06T07:19:50;2.70;99.90
25170;DHT22;13129;48.012;10.352;2024-01-06T07:22:16;2.70;99.90
25170;DHT22;13129;48.012;10.352;2024-01-06T07:24:44;2.70;99.90
25170;DHT22;13129;48.012;10.352;2024-01-06T07:27:10;2.70;99.90
25170;DHT22;13129;48.012;10.352;2024-01-06T07:29:36;2.80;99.90
25170;DHT22;13129;48.012;10.352;2024-01-06T07:32:01;2.90;99.90
25170;DHT22;13129;48.012;10.352;2024-01-06T07:34:27;2.90;99.90
25170;DHT22;13129;48.012;10.352;2024-01-06T07:36:53;3.00;99.90
25170;DHT22;13129;48.012;10.352;2024-01-06T07:39:18;3.10;99.90
25170;DHT22;13129;48.012;10.352;2024-01-06T07:41:44;2.90;99.90
25170;DHT22;13129;48.012;10.352;2024-01-06T07:44:12;2.90;99.90
25170;DHT22;13129;48.012;10.352;2024-01-06T07:46:38;2.90;99.90
25170;DHT22;13129;48.012;10.352;2024-01-06T07:49:05;3.00;99.90
25170;DHT22;13129;48.012;10.352;2024-01-06T07:51:31;3.00;99.90
25170;DHT22;13129;48.012;10.352;2024-01-06T07:53:57;3.00;99.90
25170;DHT22;13129;48.012;10.352;2024-01-06T07:56:23;3.20;99.90
25170;DHT22;13129;48.012;10.352;2024-01-06T07:58:49;3.10;99.90
25170;DHT22;13129;48.012;10.352;2024-01-06T08:01:15;3.20;99.90
25170;DHT22;13129;48.012;10.352;2024-01-06T08:03:40;3.20;99.90
25170;DHT22;13129;48.012;10.352;2024-01-06T08:06:06;3.10;99.90
25170;DHT22;13129;48.012;10.352;2024-01-06T08:08:32;3.10;99.90
25170;DHT22;13129;48.012;10.352;2024-01-06T08:10:57;3.10;99.90
25170;DHT22;13129;48.012;10.352;2024-01-06T08:13:23;3.00;99.90
25170;DHT22;13129;48.012;10.352;2024-01-06T08:15:48;3.00;99.90
25170;DHT22;13129;48.012;10.352;2024-01-06T08:18:14;2.90;99.90
25170;DHT22;13129;48.012;10.352;2024-01-06T08:20:40;3.00;99.90
25170;DHT22;13129;48.012;10.352;2024-01-06T08:23:05;3.10;99.90
25170;DHT22;13129;48.012;10.352;2024-01-06T08:25:31;3.10;99.90
25170;DHT22;13129;48.012;10.352;2024-01-06T08:27:57;3.10;99.90
25170;DHT22;13129;48.012;10.352;2024-01-06T08:30:22;3.10;99.90
25170;DHT22;13129;48.012;10.352;2024-01-06T08:32:57;3.10;99.90
25170;DHT22;13129;48.012;10.352;2024-01-06T08:35:23;3.20;99.90
25170;DHT22;13129;48.012;10.352;2024-01-06T08:37:49;3.20;99.90
25170;DHT22;13129;48.012;10.352;2024-01-06T08:40:14;3.20;99.90
25170;DHT22;13129;48.012;10.352;2024-01-06T08:42:40;3.20;99.90
25170;DHT22;13129;48.012;10.352;2024-01-06T08:45:22;3.10;99.90
25170;DHT22;13129;48.012;10.352;2024-01-06T08:47:48;3.00;99.90
25170;DHT22;13129;48.012;10.352;2024-01-06T08:50:13;3.00;99.90
25170;DHT22;13129;48.012;10.352;2024-01-06T08:52:39;3.10;99.90
25170;DHT22;13129;48.012;10.352;2024-01-06T08:55:05;3.10;99.90
25170;DHT22;13129;48.012;10.352;2024-01-06T08:57:30;3.20;99.90
25170;DHT22;13129;48.012;10.352;2024-01-06T08:59:56;3.20;99.90
25170;DHT22;13129;48.012;10.352;2024-01-06T09:02:22;3.30;99.90
25170;DHT22;13129;48.012;10.352;2024-01-06T09:04:47;3.30;99.90
25170;DHT22;13129;48.012;10.352;2024-01-06T09:07:13;3.30;99.90
25170;DHT22;13129;48.012;10.352;2024-01-06T09:09:38;3.40;99.90
25170;DHT22;13129;48.012;10.352;2024-01-06T09:12:04;3.40;99.90
25170;DHT22;13129;48.012;10.352;2024-01-06T09:14:30;3.40;99.90
25170;DHT22;13129;48.012;10.352;2024-01-06T09:16:56;3.50;99.90
25170;DHT22;13129;48.012;10.352;2024-01-06T09:19:21;3.40;99.90
25170;DHT22;13129;48.012;10.352;2024-01-06T09:21:47;3.50;99.90
25170;DHT22;13129;48.012;10.352;2024-01-06T09:24:13;3.50;99.90
25170;DHT22;13129;48.012;10.352;2024-01-06T09:26:38;3.50;99.90
25170;DHT22;13129;48.012;10.352;2024-01-06T09:29:04;3.50;99.90
25170;DHT22;13129;48.012;10.352;2024-01-06T09:31:30;3.50;99.90
25170;DHT22;13129;48.012;10.352;2024-01-06T09:33:56;3.40;99.90
25170;DHT22;13129;48.012;10.352;2024-01-06T09:36:21;3.40;99.90
25170;DHT22;13129;48.012;10.352;2024-01-06T09:38:47;3.40;99.90
25170;DHT22;13129;48.012;10.352;2024-01-06T09:41:12;3.40;99.90
25170;DHT22;13129;48.012;10.352;2024-01-06T09:43:38;3.40;99.90
25170;DHT22;13129;48.012;10.352;2024-01-06T09:46:26;3.50;99.90
25170;DHT22;13129;48.012;10.352;2024-01-06T09:48:54;3.50;99.90
25170;DHT22;13129;48.012;10.352;2024-01-06T09:51:20;3.60;99.90
25170;DHT22;13129;48.012;10.352;2024-01-06T09:54:01;3.60;99.90
25170;DHT22;13129;48.012;10.352;2024-01-06T09:56:29;3.60;99.90
25170;DHT22;13129;48.012;10.352;2024-01-06T09:58:55;3.60;99.90
25170;DHT22;13129;48.012;10.352;2024-01-06T10:01:22;3.70;99.90
25170;DHT22;13129;48.012;10.352;2024-01-06T10:03:48;3.70;99.90
25170;DHT22;13129;48.012;10.352;2024-01-06T10:06:14;3.70;99.90
25170;DHT22;13129;48.012;10.352;2024-01-06T10:08:43;3.70;99.90
25170;DHT22;13129;48.012;10.352;2024-01-06T10:11:08;3.60;99.90
25170;DHT22;13129;48.012;10.352;2024-01-06T10:13:36;3.60;99.90
25170;DHT22;13129;48.012;10.352;2024-01-06T10:16:06;3.60;99.90
25170;DHT22;13129;48.012;10.352;2024-01-06T10:18:33;3.60;99.90
25170;DHT22;13129;48.012;10.352;2024-01-06T10:21:00;3.50;99.90
25170;DHT22;13129;48.012;10.352;2024-01-06T10:23:28;3.50;99.90
25170;DHT22;13129;48.012;10.352;2024-01-06T10:25:55;3.70;99.90
25170;DHT22;13129;48.012;10.352;2024-01-06T10:28:21;3.70;99.90
25170;DHT22;13129;48.012;10.352;2024-01-06T10:30:54;3.70;99.90
25170;DHT22;13129;48.012;10.352;2024-01-06T10:33:21;3.70;99.90
25170;DHT22;13129;48.012;10.352;2024-01-06T10:35:48;3.80;99.90
25170;DHT22;13129;48.012;10.352;2024-01-06T10:38:14;3.80;99.90
25170;DHT22;13129;48.012;10.352;2024-01-06T10:40:59;3.80;99.90
25170;DHT22;13129;48.012;10.352;2024-01-06T10:43:28;3.80;99.90
25170;DHT22;13129;48.012;10.352;2024-01-06T10:46:01;3.80;99.90
25170;DHT22;13129;48.012;10.352;2024-01-06T10:48:31;3.80;99.90
25170;DHT22;13129;48.012;10.352;2024-01-06T10:50:59;3.90;99.90
25170;DHT22;13129;48.012;10.352;2024-01-06T10:53:26;3.90;99.90
25170;DHT22;13129;48.012;10.352;2024-01-06T10:55:52;3.90;99.90
25170;DHT22;13129;48.012;10.352;2024-01-06T10:58:18;4.00;99.90
25170;DHT22;13129;48.012;10.352;2024-01-06T11:00:47;4.10;99.90
25170;DHT22;13129;48.012;10.352;2024-01-06T11:03:30;4.10;99.90
25170;DHT22;13129;48.012;10.352;2024-01-06T11:05:58;4.00;99.90
25170;DHT22;13129;48.012;10.352;2024-01-06T11:08:25;4.10;99.90
25170;DHT22;13129;48.012;10.352;2024-01-06T11:10:52;4.00;99.90
25170;DHT22;13129;48.012;10.352;2024-01-06T11:13:22;4.10;99.90
25170;DHT22;13129;48.012;10.352;2024-01-06T11:15:52;4.10;99.90
25170;DHT22;13129;48.012;10.352;2024-01-06T11:18:38;4.10;99.90
25170;DHT22;13129;48.012;10.352;2024-01-06T11:21:19;4.20;99.90
25170;DHT22;13129;48.012;10.352;2024-01-06T11:24:18;4.10;99.90
25170;DHT22;13129;48.012;10.352;2024-01-06T11:26:55;4.10;99.90
25170;DHT22;13129;48.012;10.352;2024-01-06T11:29:21;4.00;99.90
25170;DHT22;13129;48.012;10.352;2024-01-06T11:32:19;4.10;99.90
25170;DHT22;13129;48.012;10.352;2024-01-06T11:34:53;4.00;99.90
25170;DHT22;13129;48.012;10.352;2024-01-06T11:37:34;4.00;99.90
25170;DHT22;13129;48.012;10.352;2024-01-06T11:40:02;4.00;99.90
25170;DHT22;13129;48.012;10.352;2024-01-06T11:42:34;3.90;99.90
25170;DHT22;13129;48.012;10.352;2024-01-06T11:45:05;4.00;99.90
25170;DHT22;13129;48.012;10.352;2024-01-06T11:47:32;4.10;99.90
25170;DHT22;13129;48.012;10.352;2024-01-06T11:49:59;4.10;99.90
25170;DHT22;13129;48.012;10.352;2024-01-06T11:52:26;4.20;99.90
25170;DHT22;13129;48.012;10.352;2024-01-06T11:54:54;4.30;99.90
25170;DHT22;13129;48.012;10.352;2024-01-06T11:57:21;4.40;99.90
25170;DHT22;13129;48.012;10.352;2024-01-06T11:59:48;4.30;99.90
25170;DHT22;13129;48.012;10.352;2024-01-06T12:02:17;4.30;99.90
25170;DHT22;13129;48.012;10.352;2024-01-06T12:04:48;4.30;99.90
25170;DHT22;13129;48.012;10.352;2024-01-06T12:07:15;4.30;99.90
25170;DHT22;13129;48.012;10.352;2024-01-06T12:09:41;4.30;99.90
25170;DHT22;13129;48.012;10.352;2024-01-06T12:12:07;4.40;99.90
25170;DHT22;13129;48.012;10.352;2024-01-06T12:14:34;4.30;99.90
25170;DHT22;13129;48.012;10.352;2024-01-06T12:17:00;4.30;99.90
25170;DHT22;13129;48.012;10.352;2024-01-06T12:19:30;4.30;99.90
25170;DHT22;13129;48.012;10.352;2024-01-06T12:21:56;4.30;99.90
25170;DHT22;13129;48.012;10.352;2024-01-06T12:24:22;4.30;99.90
25170;DHT22;13129;48.012;10.352;2024-01-06T12:26:48;4.30;99.90
25170;DHT22;13129;48.012;10.352;2024-01-06T12:29:14;4.30;99.90
25170;DHT22;13129;48.012;10.352;2024-01-06T12:31:40;4.30;99.90
25170;DHT22;13129;48.012;10.352;2024-01-06T12:34:07;4.30;99.90
25170;DHT22;13129;48.012;10.352;2024-01-06T12:36:35;4.20;99.90
25170;DHT22;13129;48.012;10.352;2024-01-06T12:39:02;4.30;99.90
25170;DHT22;13129;48.012;10.352;2024-01-06T12:41:28;4.20;99.90
25170;DHT22;13129;48.012;10.352;2024-01-06T12:43:53;4.20;99.90
25170;DHT22;13129;48.012;10.352;2024-01-06T12:46:19;4.20;99.90
25170;DHT22;13129;48.012;10.352;2024-01-06T12:48:45;4.20;99.90
25170;DHT22;13129;48.012;10.352;2024-01-06T12:51:11;4.20;99.90
25170;DHT22;13129;48.012;10.352;2024-01-06T12:53:36;4.20;99.90
25170;DHT22;13129;48.012;10.352;2024-01-06T12:56:02;4.20;99.90
25170;DHT22;13129;48.012;10.352;2024-01-06T12:58:27;4.10;99.90
25170;DHT22;13129;48.012;10.352;2024-01-06T13:00:53;4.10;99.90
25170;DHT22;13129;48.012;10.352;2024-01-06T13:03:19;4.10;99.90
25170;DHT22;13129;48.012;10.352;2024-01-06T13:05:45;4.10;99.90
25170;DHT22;13129;48.012;10.352;2024-01-06T13:08:11;4.20;99.90
25170;DHT22;13129;48.012;10.352;2024-01-06T13:10:36;4.20;99.90
25170;DHT22;13129;48.012;10.352;2024-01-06T13:13:02;4.20;99.90
25170;DHT22;13129;48.012;10.352;2024-01-06T13:15:28;4.20;99.90
25170;DHT22;13129;48.012;10.352;2024-01-06T13:17:53;4.10;99.90
25170;DHT22;13129;48.012;10.352;2024-01-06T13:20:20;4.00;99.90
25170;DHT22;13129;48.012;10.352;2024-01-06T13:22:49;4.10;99.90
25170;DHT22;13129;48.012;10.352;2024-01-06T13:25:18;4.10;99.90
25170;DHT22;13129;48.012;10.352;2024-01-06T13:27:45;4.00;99.90
25170;DHT22;13129;48.012;10.352;2024-01-06T13:30:11;3.90;99.90
25170;DHT22;13129;48.012;10.352;2024-01-06T13:32:38;4.00;99.90
25170;DHT22;13129;48.012;10.352;2024-01-06T13:35:04;3.90;99.90
25170;DHT22;13129;48.012;10.352;2024-01-06T13:37:31;3.80;99.90
25170;DHT22;13129;48.012;10.352;2024-01-06T13:39:57;3.90;99.90
25170;DHT22;13129;48.012;10.352;2024-01-06T13:42:23;3.90;99.90
25170;DHT22;13129;48.012;10.352;2024-01-06T13:44:48;3.90;99.90
25170;DHT22;13129;48.012;10.352;2024-01-06T13:47:14;3.90;99.90
25170;DHT22;13129;48.012;10.352;2024-01-06T13:49:40;3.90;99.90
25170;DHT22;13129;48.012;10.352;2024-01-06T13:52:06;3.90;99.90
25170;DHT22;13129;48.012;10.352;2024-01-06T13:54:34;3.90;99.90
25170;DHT22;13129;48.012;10.352;2024-01-06T13:56:59;3.80;99.90
25170;DHT22;13129;48.012;10.352;2024-01-06T13:59:25;3.80;99.90
25170;DHT22;13129;48.012;10.352;2024-01-06T14:01:51;4.00;99.90
25170;DHT22;13129;48.012;10.352;2024-01-06T14:04:17;3.80;99.90
25170;DHT22;13129;48.012;10.352;2024-01-06T14:06:43;3.80;99.90
25170;DHT22;13129;48.012;10.352;2024-01-06T14:09:08;3.80;99.90
25170;DHT22;13129;48.012;10.352;2024-01-06T14:11:34;3.80;99.90
25170;DHT22;13129;48.012;10.352;2024-01-06T14:14:01;3.80;99.90
25170;DHT22;13129;48.012;10.352;2024-01-06T14:16:27;3.70;99.90
25170;DHT22;13129;48.012;10.352;2024-01-06T14:18:53;3.80;99.90
25170;DHT22;13129;48.012;10.352;2024-01-06T14:21:19;4.00;99.90
25170;DHT22;13129;48.012;10.352;2024-01-06T14:23:48;4.00;99.90
25170;DHT22;13129;48.012;10.352;2024-01-06T14:26:15;3.90;99.90
25170;DHT22;13129;48.012;10.352;2024-01-06T14:28:42;3.90;99.90
25170;DHT22;13129;48.012;10.352;2024-01-06T14:31:08;3.90;99.90
25170;DHT22;13129;48.012;10.352;2024-01-06T14:33:36;3.80;99.90
25170;DHT22;13129;48.012;10.352;2024-01-06T14:36:01;3.70;99.90
25170;DHT22;13129;48.012;10.352;2024-01-06T14:38:29;3.70;99.90
25170;DHT22;13129;48.012;10.352;2024-01-06T14:40:56;3.70;99.90
25170;DHT22;13129;48.012;10.352;2024-01-06T14:43:21;3.70;99.90
25170;DHT22;13129;48.012;10.352;2024-01-06T14:45:47;3.70;99.90
25170;DHT22;13129;48.012;10.352;2024-01-06T14:48:13;3.70;99.90
25170;DHT22;13129;48.012;10.352;2024-01-06T14:50:39;3.70;99.90
25170;DHT22;13129;48.012;10.352;2024-01-06T14:53:04;3.70;99.90
25170;DHT22;13129;48.012;10.352;2024-01-06T14:55:30;3.70;99.90
25170;DHT22;13129;48.012;10.352;2024-01-06T14:57:56;3.60;99.90
25170;DHT22;13129;48.012;10.352;2024-01-06T15:00:21;3.60;99.90
25170;DHT22;13129;48.012;10.352;2024-01-06T15:02:47;3.60;99.90
25170;DHT22;13129;48.012;10.352;2024-01-06T15:05:12;3.60;99.90
25170;DHT22;13129;48.012;10.352;2024-01-06T15:07:38;3.60;99.90
25170;DHT22;13129;48.012;10.352;2024-01-06T15:10:04;3.60;99.90
25170;DHT22;13129;48.012;10.352;2024-01-06T15:12:30;3.50;99.90
25170;DHT22;13129;48.012;10.352;2024-01-06T15:14:56;3.50;99.90
25170;DHT22;13129;48.012;10.352;2024-01-06T15:17:24;3.50;99.90
25170;DHT22;13129;48.012;10.352;2024-01-06T15:19:49;3.60;99.90
25170;DHT22;13129;48.012;10.352;2024-01-06T15:22:16;3.50;99.90
25170;DHT22;13129;48.012;10.352;2024-01-06T15:24:42;3.50;99.90
25170;DHT22;13129;48.012;10.352;2024-01-06T15:27:13;3.60;99.90
25170;DHT22;13129;48.012;10.352;2024-01-06T15:29:39;3.50;99.90
25170;DHT22;13129;48.012;10.352;2024-01-06T15:32:05;3.50;99.90
25170;DHT22;13129;48.012;10.352;2024-01-06T15:34:31;3.50;99.90
25170;DHT22;13129;48.012;10.352;2024-01-06T15:36:56;3.60;99.90
25170;DHT22;13129;48.012;10.352;2024-01-06T15:39:22;3.50;99.90
25170;DHT22;13129;48.012;10.352;2024-01-06T15:41:47;3.70;99.90
25170;DHT22;13129;48.012;10.352;2024-01-06T15:44:13;3.50;99.90
25170;DHT22;13129;48.012;10.352;2024-01-06T15:46:39;3.50;99.90
25170;DHT22;13129;48.012;10.352;2024-01-06T15:49:05;3.40;99.90
25170;DHT22;13129;48.012;10.352;2024-01-06T15:51:30;3.40;99.90
25170;DHT22;13129;48.012;10.352;2024-01-06T15:53:56;3.60;99.90
25170;DHT22;13129;48.012;10.352;2024-01-06T15:56:22;3.50;99.90
25170;DHT22;13129;48.012;10.352;2024-01-06T15:58:47;3.50;99.90
25170;DHT22;13129;48.012;10.352;2024-01-06T16:01:14;3.40;99.90
25170;DHT22;13129;48.012;10.352;2024-01-06T16:03:39;3.50;99.90
25170;DHT22;13129;48.012;10.352;2024-01-06T16:06:05;3.40;99.90
25170;DHT22;13129;48.012;10.352;2024-01-06T16:08:31;3.40;99.90
25170;DHT22;13129;48.012;10.352;2024-01-06T16:10:57;3.40;99.90
25170;DHT22;13129;48.012;10.352;2024-01-06T16:13:24;3.30;99.90
25170;DHT22;13129;48.012;10.352;2024-01-06T16:15:51;3.40;99.90
25170;DHT22;13129;48.012;10.352;2024-01-06T16:18:17;3.40;99.90
25170;DHT22;13129;48.012;10.352;2024-01-06T16:20:45;3.40;99.90
25170;DHT22;13129;48.012;10.352;2024-01-06T16:23:12;3.30;99.90
25170;DHT22;13129;48.012;10.352;2024-01-06T16:25:39;3.30;99.90
25170;DHT22;13129;48.012;10.352;2024-01-06T16:28:05;3.40;99.90
25170;DHT22;13129;48.012;10.352;2024-01-06T16:30:32;3.30;99.90
25170;DHT22;13129;48.012;10.352;2024-01-06T16:32:57;3.20;99.90
25170;DHT22;13129;48.012;10.352;2024-01-06T16:35:25;3.20;99.90
25170;DHT22;13129;48.012;10.352;2024-01-06T16:37:51;3.20;99.90
25170;DHT22;13129;48.012;10.352;2024-01-06T16:40:17;3.30;99.90
25170;DHT22;13129;48.012;10.352;2024-01-06T16:42:44;3.20;99.90
25170;DHT22;13129;48.012;10.352;2024-01-06T16:45:10;3.10;99.90
25170;DHT22;13129;48.012;10.352;2024-01-06T16:47:36;3.10;99.90
25170;DHT22;13129;48.012;10.352;2024-01-06T16:50:02;3.00;99.90
25170;DHT22;13129;48.012;10.352;2024-01-06T16:52:28;3.10;99.90
25170;DHT22;13129;48.012;10.352;2024-01-06T16:54:53;3.00;99.90
25170;DHT22;13129;48.012;10.352;2024-01-06T16:57:19;3.00;99.90
25170;DHT22;13129;48.012;10.352;2024-01-06T16:59:45;2.90;99.90
25170;DHT22;13129;48.012;10.352;2024-01-06T17:02:12;2.90;99.90
25170;DHT22;13129;48.012;10.352;2024-01-06T17:04:38;3.10;99.90
25170;DHT22;13129;48.012;10.352;2024-01-06T17:07:03;3.00;99.90
25170;DHT22;13129;48.012;10.352;2024-01-06T17:09:30;2.90;99.90
25170;DHT22;13129;48.012;10.352;2024-01-06T17:11:55;2.90;99.90
25170;DHT22;13129;48.012;10.352;2024-01-06T17:14:21;2.90;99.90
25170;DHT22;13129;48.012;10.352;2024-01-06T17:16:48;2.90;99.90
25170;DHT22;13129;48.012;10.352;2024-01-06T17:19:13;2.70;99.90
25170;DHT22;13129;48.012;10.352;2024-01-06T17:21:39;2.60;99.90
25170;DHT22;13129;48.012;10.352;2024-01-06T17:24:05;2.60;99.90
25170;DHT22;13129;48.012;10.352;2024-01-06T17:26:32;2.50;99.90
25170;DHT22;13129;48.012;10.352;2024-01-06T17:28:57;2.50;99.90
25170;DHT22;13129;48.012;10.352;2024-01-06T17:31:23;2.40;99.90
25170;DHT22;13129;48.012;10.352;2024-01-06T17:33:48;2.40;99.90
25170;DHT22;13129;48.012;10.352;2024-01-06T17:36:15;2.50;99.90
25170;DHT22;13129;48.012;10.352;2024-01-06T17:38:42;2.40;99.90
25170;DHT22;13129;48.012;10.352;2024-01-06T17:41:07;2.40;99.90
25170;DHT22;13129;48.012;10.352;2024-01-06T17:43:33;2.30;99.90
25170;DHT22;13129;48.012;10.352;2024-01-06T17:45:59;2.30;99.90
25170;DHT22;13129;48.012;10.352;2024-01-06T17:48:25;2.30;99.90
25170;DHT22;13129;48.012;10.352;2024-01-06T17:50:51;2.30;99.90
25170;DHT22;13129;48.012;10.352;2024-01-06T17:53:17;2.40;99.90
25170;DHT22;13129;48.012;10.352;2024-01-06T17:55:42;2.50;99.90
25170;DHT22;13129;48.012;10.352;2024-01-06T17:58:08;2.30;99.90
25170;DHT22;13129;48.012;10.352;2024-01-06T18:00:33;2.20;99.90
25170;DHT22;13129;48.012;10.352;2024-01-06T18:02:59;2.30;99.90
25170;DHT22;13129;48.012;10.352;2024-01-06T18:05:25;2.20;99.90
25170;DHT22;13129;48.012;10.352;2024-01-06T18:07:50;2.40;99.90
25170;DHT22;13129;48.012;10.352;2024-01-06T18:10:16;2.40;99.90
25170;DHT22;13129;48.012;10.352;2024-01-06T18:12:42;2.30;99.90
25170;DHT22;13129;48.012;10.352;2024-01-06T18:15:09;2.20;99.90
25170;DHT22;13129;48.012;10.352;2024-01-06T18:17:35;2.20;99.90
25170;DHT22;13129;48.012;10.352;2024-01-06T18:20:08;2.20;99.90
25170;DHT22;13129;48.012;10.352;2024-01-06T18:22:34;2.20;99.90
25170;DHT22;13129;48.012;10.352;2024-01-06T18:24:59;2.30;99.90
25170;DHT22;13129;48.012;10.352;2024-01-06T18:27:25;2.30;99.90
25170;DHT22;13129;48.012;10.352;2024-01-06T18:29:51;2.30;99.90
25170;DHT22;13129;48.012;10.352;2024-01-06T18:32:16;2.20;99.90
25170;DHT22;13129;48.012;10.352;2024-01-06T18:34:42;2.20;99.90
25170;DHT22;13129;48.012;10.352;2024-01-06T18:37:10;2.20;99.90
25170;DHT22;13129;48.012;10.352;2024-01-06T18:39:40;2.20;99.90
25170;DHT22;13129;48.012;10.352;2024-01-06T18:42:07;2.20;99.90
25170;DHT22;13129;48.012;10.352;2024-01-06T18:44:39;2.20;99.90
25170;DHT22;13129;48.012;10.352;2024-01-06T18:47:05;2.10;99.90
25170;DHT22;13129;48.012;10.352;2024-01-06T18:49:34;2.10;99.90
25170;DHT22;13129;48.012;10.352;2024-01-06T18:52:00;2.20;99.90
25170;DHT22;13129;48.012;10.352;2024-01-06T18:54:26;2.10;99.90
25170;DHT22;13129;48.012;10.352;2024-01-06T18:56:52;2.10;99.90
25170;DHT22;13129;48.012;10.352;2024-01-06T18:59:17;2.20;99.90
25170;DHT22;13129;48.012;10.352;2024-01-06T19:01:43;2.00;99.90
25170;DHT22;13129;48.012;10.352;2024-01-06T19:04:09;2.00;99.90
25170;DHT22;13129;48.012;10.352;2024-01-06T19:06:35;2.00;99.90
25170;DHT22;13129;48.012;10.352;2024-01-06T19:09:01;1.90;99.90
25170;DHT22;13129;48.012;10.352;2024-01-06T19:11:26;1.90;99.90
25170;DHT22;13129;48.012;10.352;2024-01-06T19:13:52;1.80;99.90
25170;DHT22;13129;48.012;10.352;2024-01-06T19:16:18;1.80;99.90
25170;DHT22;13129;48.012;10.352;2024-01-06T19:18:44;2.00;99.90
25170;DHT22;13129;48.012;10.352;2024-01-06T19:21:12;1.80;99.90
25170;DHT22;13129;48.012;10.352;2024-01-06T19:23:39;1.90;99.90
25170;DHT22;13129;48.012;10.352;2024-01-06T19:26:06;1.80;99.90
25170;DHT22;13129;48.012;10.352;2024-01-06T19:28:31;1.80;99.90
25170;DHT22;13129;48.012;10.352;2024-01-06T19:30:57;1.90;99.90
25170;DHT22;13129;48.012;10.352;2024-01-06T19:33:25;1.90;99.90
25170;DHT22;13129;48.012;10.352;2024-01-06T19:35:51;1.70;99.90
25170;DHT22;13129;48.012;10.352;2024-01-06T19:38:17;1.70;99.90
25170;DHT22;13129;48.012;10.352;2024-01-06T19:40:45;1.70;99.90
25170;DHT22;13129;48.012;10.352;2024-01-06T19:43:11;1.70;99.90
25170;DHT22;13129;48.012;10.352;2024-01-06T19:45:36;1.80;99.90
25170;DHT22;13129;48.012;10.352;2024-01-06T19:48:02;1.70;99.90
25170;DHT22;13129;48.012;10.352;2024-01-06T19:50:28;1.80;99.90
25170;DHT22;13129;48.012;10.352;2024-01-06T19:52:53;1.80;99.90
25170;DHT22;13129;48.012;10.352;2024-01-06T19:55:19;1.80;99.90
25170;DHT22;13129;48.012;10.352;2024-01-06T19:57:45;1.80;99.90